sensor_id;sensor_type;location;lat;lon;timestamp;P1;durP1;ratioP1;P2;durP2;ratioP2
12367;SDS011;6248;49.812;6.620;2023-04-10T00:01:28;4.47;;;3.80;;
12367;SDS011;6248;49.812;6.620;2023-04-10T00:04:00;4.80;;;4.13;;
12367;SDS011;6248;49.812;6.620;2023-04-10T00:06:28;4.40;;;4.00;;
12367;SDS011;6248;49.812;6.620;2023-04-10T00:08:55;4.73;;;4.10;;
12367;SDS011;6248;49.812;6.620;2023-04-10T00:11:23;4.40;;;4.00;;
12367;SDS011;6248;49.812;6.620;2023-04-10T00:13:50;4.50;;;4.10;;
12367;SDS011;6248;49.812;6.620;2023-04-10T00:16:17;4.50;;;4.10;;
12367;SDS011;6248;49.812;6.620;2023-04-10T00:18:45;4.93;;;4.47;;
12367;SDS011;6248;49.812;6.620;2023-04-10T00:21:14;4.47;;;4.07;;
12367;SDS011;6248;49.812;6.620;2023-04-10T00:23:41;4.20;;;3.90;;
12367;SDS011;6248;49.812;6.620;2023-04-10T00:26:08;4.20;;;3.80;;
12367;SDS011;6248;49.812;6.620;2023-04-10T00:28:35;4.73;;;4.33;;
12367;SDS011;6248;49.812;6.620;2023-04-10T00:31:02;4.40;;;4.00;;
12367;SDS011;6248;49.812;6.620;2023-04-10T00:33:30;4.40;;;4.00;;
12367;SDS011;6248;49.812;6.620;2023-04-10T00:35:57;4.80;;;4.30;;
12367;SDS011;6248;49.812;6.620;2023-04-10T00:38:25;4.40;;;4.10;;
12367;SDS011;6248;49.812;6.620;2023-04-10T00:40:52;4.63;;;4.00;;
12367;SDS011;6248;49.812;6.620;2023-04-10T00:43:20;4.27;;;3.97;;
12367;SDS011;6248;49.812;6.620;2023-04-10T00:45:48;4.30;;;3.93;;
12367;SDS011;6248;49.812;6.620;2023-04-10T00:48:15;4.87;;;4.47;;
12367;SDS011;6248;49.812;6.620;2023-04-10T00:50:42;4.40;;;4.00;;
12367;SDS011;6248;49.812;6.620;2023-04-10T00:53:11;4.57;;;4.17;;
12367;SDS011;6248;49.812;6.620;2023-04-10T00:55:39;4.80;;;4.40;;
12367;SDS011;6248;49.812;6.620;2023-04-10T00:58:07;4.67;;;4.20;;
12367;SDS011;6248;49.812;6.620;2023-04-10T01:00:37;4.47;;;4.07;;
12367;SDS011;6248;49.812;6.620;2023-04-10T01:03:05;4.73;;;4.33;;
12367;SDS011;6248;49.812;6.620;2023-04-10T01:05:34;3.90;;;3.60;;
12367;SDS011;6248;49.812;6.620;2023-04-10T01:08:08;4.50;;;4.10;;
12367;SDS011;6248;49.812;6.620;2023-04-10T01:10:42;5.80;;;4.50;;
12367;SDS011;6248;49.812;6.620;2023-04-10T01:13:14;4.70;;;4.30;;
12367;SDS011;6248;49.812;6.620;2023-04-10T01:15:43;4.77;;;4.37;;
12367;SDS011;6248;49.812;6.620;2023-04-10T01:18:15;4.63;;;4.23;;
12367;SDS011;6248;49.812;6.620;2023-04-10T01:20:44;4.60;;;4.20;;
12367;SDS011;6248;49.812;6.620;2023-04-10T01:26:10;4.77;;;4.37;;
12367;SDS011;6248;49.812;6.620;2023-04-10T01:28:45;4.57;;;4.17;;
12367;SDS011;6248;49.812;6.620;2023-04-10T01:31:17;4.90;;;4.50;;
12367;SDS011;6248;49.812;6.620;2023-04-10T01:33:46;4.67;;;4.17;;
12367;SDS011;6248;49.812;6.620;2023-04-10T01:36:16;4.70;;;4.30;;
12367;SDS011;6248;49.812;6.620;2023-04-10T01:38:44;4.40;;;4.10;;
12367;SDS011;6248;49.812;6.620;2023-04-10T01:41:13;5.30;;;4.80;;
12367;SDS011;6248;49.812;6.620;2023-04-10T01:43:40;4.87;;;4.47;;
12367;SDS011;6248;49.812;6.620;2023-04-10T01:46:10;5.40;;;4.90;;
12367;SDS011;6248;49.812;6.620;2023-04-10T01:48:38;4.57;;;4.17;;
12367;SDS011;6248;49.812;6.620;2023-04-10T01:51:06;4.93;;;4.50;;
12367;SDS011;6248;49.812;6.620;2023-04-10T01:53:33;5.07;;;4.67;;
12367;SDS011;6248;49.812;6.620;2023-04-10T01:56:01;4.80;;;4.40;;
12367;SDS011;6248;49.812;6.620;2023-04-10T01:58:29;5.33;;;4.83;;
12367;SDS011;6248;49.812;6.620;2023-04-10T02:00:56;4.83;;;4.43;;
12367;SDS011;6248;49.812;6.620;2023-04-10T02:03:24;5.10;;;4.60;;
12367;SDS011;6248;49.812;6.620;2023-04-10T02:05:54;4.77;;;4.37;;
12367;SDS011;6248;49.812;6.620;2023-04-10T02:08:23;5.43;;;4.93;;
12367;SDS011;6248;49.812;6.620;2023-04-10T02:10:53;5.30;;;4.80;;
12367;SDS011;6248;49.812;6.620;2023-04-10T02:13:20;4.63;;;4.23;;
12367;SDS011;6248;49.812;6.620;2023-04-10T02:15:49;4.90;;;4.43;;
12367;SDS011;6248;49.812;6.620;2023-04-10T02:18:17;4.97;;;4.47;;
12367;SDS011;6248;49.812;6.620;2023-04-10T02:20:46;5.93;;;4.50;;
12367;SDS011;6248;49.812;6.620;2023-04-10T02:23:14;4.90;;;4.50;;
12367;SDS011;6248;49.812;6.620;2023-04-10T02:25:41;4.80;;;4.30;;
12367;SDS011;6248;49.812;6.620;2023-04-10T02:28:08;5.03;;;4.60;;
12367;SDS011;6248;49.812;6.620;2023-04-10T02:30:35;4.63;;;4.23;;
12367;SDS011;6248;49.812;6.620;2023-04-10T02:33:03;4.97;;;4.33;;
12367;SDS011;6248;49.812;6.620;2023-04-10T02:35:30;4.80;;;4.40;;
12367;SDS011;6248;49.812;6.620;2023-04-10T02:37:59;4.63;;;4.23;;
12367;SDS011;6248;49.812;6.620;2023-04-10T02:40:26;5.03;;;4.63;;
12367;SDS011;6248;49.812;6.620;2023-04-10T02:42:53;4.77;;;4.37;;
12367;SDS011;6248;49.812;6.620;2023-04-10T02:45:20;4.70;;;4.30;;
12367;SDS011;6248;49.812;6.620;2023-04-10T02:47:47;5.37;;;4.90;;
12367;SDS011;6248;49.812;6.620;2023-04-10T02:50:14;5.40;;;4.90;;
12367;SDS011;6248;49.812;6.620;2023-04-10T02:52:42;4.33;;;3.97;;
12367;SDS011;6248;49.812;6.620;2023-04-10T02:55:10;5.43;;;4.93;;
12367;SDS011;6248;49.812;6.620;2023-04-10T02:57:38;5.67;;;5.07;;
12367;SDS011;6248;49.812;6.620;2023-04-10T03:00:05;5.07;;;4.67;;
12367;SDS011;6248;49.812;6.620;2023-04-10T03:02:32;5.60;;;5.10;;
12367;SDS011;6248;49.812;6.620;2023-04-10T03:05:00;5.40;;;4.47;;
12367;SDS011;6248;49.812;6.620;2023-04-10T03:07:27;4.53;;;4.13;;
12367;SDS011;6248;49.812;6.620;2023-04-10T03:09:56;5.10;;;4.70;;
12367;SDS011;6248;49.812;6.620;2023-04-10T03:12:24;4.90;;;4.50;;
12367;SDS011;6248;49.812;6.620;2023-04-10T03:14:51;4.93;;;4.50;;
12367;SDS011;6248;49.812;6.620;2023-04-10T03:17:18;4.67;;;4.27;;
12367;SDS011;6248;49.812;6.620;2023-04-10T03:19:46;4.90;;;4.40;;
12367;SDS011;6248;49.812;6.620;2023-04-10T03:22:13;4.97;;;4.57;;
12367;SDS011;6248;49.812;6.620;2023-04-10T03:24:40;4.83;;;4.43;;
12367;SDS011;6248;49.812;6.620;2023-04-10T03:27:07;4.50;;;4.10;;
12367;SDS011;6248;49.812;6.620;2023-04-10T03:29:35;4.50;;;4.10;;
12367;SDS011;6248;49.812;6.620;2023-04-10T03:32:03;5.00;;;4.60;;
12367;SDS011;6248;49.812;6.620;2023-04-10T03:34:30;4.47;;;4.07;;
12367;SDS011;6248;49.812;6.620;2023-04-10T03:36:57;4.70;;;4.23;;
12367;SDS011;6248;49.812;6.620;2023-04-10T03:39:24;4.60;;;4.20;;
12367;SDS011;6248;49.812;6.620;2023-04-10T03:41:51;5.07;;;4.60;;
12367;SDS011;6248;49.812;6.620;2023-04-10T03:44:18;5.23;;;4.83;;
12367;SDS011;6248;49.812;6.620;2023-04-10T03:46:47;5.17;;;4.77;;
12367;SDS011;6248;49.812;6.620;2023-04-10T03:49:14;5.47;;;4.80;;
12367;SDS011;6248;49.812;6.620;2023-04-10T03:51:42;4.73;;;4.33;;
12367;SDS011;6248;49.812;6.620;2023-04-10T03:54:09;5.10;;;4.60;;
12367;SDS011;6248;49.812;6.620;2023-04-10T03:56:36;4.67;;;4.27;;
12367;SDS011;6248;49.812;6.620;2023-04-10T03:59:03;5.43;;;4.90;;
12367;SDS011;6248;49.812;6.620;2023-04-10T04:01:30;5.30;;;4.80;;
12367;SDS011;6248;49.812;6.620;2023-04-10T04:03:59;5.47;;;4.67;;
12367;SDS011;6248;49.812;6.620;2023-04-10T04:06:26;4.87;;;4.47;;
12367;SDS011;6248;49.812;6.620;2023-04-10T04:08:53;5.00;;;4.50;;
12367;SDS011;6248;49.812;6.620;2023-04-10T04:11:20;4.93;;;4.53;;
12367;SDS011;6248;49.812;6.620;2023-04-10T04:13:47;4.63;;;4.23;;
12367;SDS011;6248;49.812;6.620;2023-04-10T04:16:14;5.33;;;4.83;;
12367;SDS011;6248;49.812;6.620;2023-04-10T04:18:41;5.03;;;4.63;;
12367;SDS011;6248;49.812;6.620;2023-04-10T04:21:10;4.97;;;4.57;;
12367;SDS011;6248;49.812;6.620;2023-04-10T04:23:38;5.00;;;4.57;;
12367;SDS011;6248;49.812;6.620;2023-04-10T04:26:05;5.40;;;4.97;;
12367;SDS011;6248;49.812;6.620;2023-04-10T04:28:32;4.80;;;4.40;;
12367;SDS011;6248;49.812;6.620;2023-04-10T04:30:59;5.03;;;4.63;;
12367;SDS011;6248;49.812;6.620;2023-04-10T04:33:26;4.80;;;4.40;;
12367;SDS011;6248;49.812;6.620;2023-04-10T04:35:53;4.63;;;4.23;;
12367;SDS011;6248;49.812;6.620;2023-04-10T04:38:22;5.50;;;5.00;;
12367;SDS011;6248;49.812;6.620;2023-04-10T04:40:49;5.13;;;4.70;;
12367;SDS011;6248;49.812;6.620;2023-04-10T04:43:16;5.10;;;4.70;;
12367;SDS011;6248;49.812;6.620;2023-04-10T04:45:43;4.83;;;4.43;;
12367;SDS011;6248;49.812;6.620;2023-04-10T04:48:11;5.03;;;4.63;;
12367;SDS011;6248;49.812;6.620;2023-04-10T04:50:38;4.83;;;4.43;;
12367;SDS011;6248;49.812;6.620;2023-04-10T04:53:06;5.27;;;4.77;;
12367;SDS011;6248;49.812;6.620;2023-04-10T04:55:34;5.40;;;4.90;;
12367;SDS011;6248;49.812;6.620;2023-04-10T04:58:01;6.67;;;5.40;;
12367;SDS011;6248;49.812;6.620;2023-04-10T05:00:28;4.97;;;4.57;;
12367;SDS011;6248;49.812;6.620;2023-04-10T05:02:55;5.00;;;4.50;;
12367;SDS011;6248;49.812;6.620;2023-04-10T05:05:23;4.90;;;4.50;;
12367;SDS011;6248;49.812;6.620;2023-04-10T05:07:50;4.60;;;4.13;;
12367;SDS011;6248;49.812;6.620;2023-04-10T05:10:17;4.60;;;4.20;;
12367;SDS011;6248;49.812;6.620;2023-04-10T05:12:45;4.67;;;4.27;;
12367;SDS011;6248;49.812;6.620;2023-04-10T05:15:12;5.03;;;4.63;;
12367;SDS011;6248;49.812;6.620;2023-04-10T05:17:40;4.80;;;4.40;;
12367;SDS011;6248;49.812;6.620;2023-04-10T05:20:07;5.13;;;4.73;;
12367;SDS011;6248;49.812;6.620;2023-04-10T05:22:35;5.03;;;4.60;;
12367;SDS011;6248;49.812;6.620;2023-04-10T05:25:02;4.93;;;4.40;;
12367;SDS011;6248;49.812;6.620;2023-04-10T05:27:29;5.30;;;4.80;;
12367;SDS011;6248;49.812;6.620;2023-04-10T05:29:58;5.40;;;4.90;;
12367;SDS011;6248;49.812;6.620;2023-04-10T05:32:25;5.37;;;4.87;;
12367;SDS011;6248;49.812;6.620;2023-04-10T05:34:52;6.40;;;5.60;;
12367;SDS011;6248;49.812;6.620;2023-04-10T05:37:19;6.33;;;5.73;;
12367;SDS011;6248;49.812;6.620;2023-04-10T05:39:46;6.30;;;5.70;;
12367;SDS011;6248;49.812;6.620;2023-04-10T05:42:13;6.37;;;5.77;;
12367;SDS011;6248;49.812;6.620;2023-04-10T05:44:40;6.27;;;5.67;;
12367;SDS011;6248;49.812;6.620;2023-04-10T05:47:09;5.73;;;5.17;;
12367;SDS011;6248;49.812;6.620;2023-04-10T05:49:36;5.13;;;4.63;;
12367;SDS011;6248;49.812;6.620;2023-04-10T05:52:03;5.30;;;4.90;;
12367;SDS011;6248;49.812;6.620;2023-04-10T05:54:30;5.27;;;4.87;;
12367;SDS011;6248;49.812;6.620;2023-04-10T05:56:57;5.93;;;5.33;;
12367;SDS011;6248;49.812;6.620;2023-04-10T05:59:25;4.93;;;4.53;;
12367;SDS011;6248;49.812;6.620;2023-04-10T06:01:52;5.10;;;4.60;;
12367;SDS011;6248;49.812;6.620;2023-04-10T06:04:21;4.87;;;4.47;;
12367;SDS011;6248;49.812;6.620;2023-04-10T06:06:48;5.07;;;4.57;;
12367;SDS011;6248;49.812;6.620;2023-04-10T06:09:15;5.10;;;4.60;;
12367;SDS011;6248;49.812;6.620;2023-04-10T06:11:42;5.13;;;4.63;;
12367;SDS011;6248;49.812;6.620;2023-04-10T06:14:09;5.00;;;4.60;;
12367;SDS011;6248;49.812;6.620;2023-04-10T06:16:36;5.03;;;4.53;;
12367;SDS011;6248;49.812;6.620;2023-04-10T06:19:04;5.23;;;4.73;;
12367;SDS011;6248;49.812;6.620;2023-04-10T06:21:32;5.20;;;4.70;;
12367;SDS011;6248;49.812;6.620;2023-04-10T06:24:00;5.60;;;5.10;;
12367;SDS011;6248;49.812;6.620;2023-04-10T06:26:27;5.30;;;4.80;;
12367;SDS011;6248;49.812;6.620;2023-04-10T06:28:54;5.57;;;5.07;;
12367;SDS011;6248;49.812;6.620;2023-04-10T06:31:21;5.60;;;5.10;;
12367;SDS011;6248;49.812;6.620;2023-04-10T06:33:48;5.73;;;5.23;;
12367;SDS011;6248;49.812;6.620;2023-04-10T06:36:17;5.90;;;5.20;;
12367;SDS011;6248;49.812;6.620;2023-04-10T06:38:46;6.17;;;5.57;;
12367;SDS011;6248;49.812;6.620;2023-04-10T06:41:13;5.70;;;5.13;;
12367;SDS011;6248;49.812;6.620;2023-04-10T06:43:40;5.63;;;5.13;;
12367;SDS011;6248;49.812;6.620;2023-04-10T06:46:07;5.27;;;4.77;;
12367;SDS011;6248;49.812;6.620;2023-04-10T06:48:34;5.17;;;4.77;;
12367;SDS011;6248;49.812;6.620;2023-04-10T06:51:01;6.00;;;5.47;;
12367;SDS011;6248;49.812;6.620;2023-04-10T06:53:28;5.13;;;4.63;;
12367;SDS011;6248;49.812;6.620;2023-04-10T06:55:57;5.10;;;4.70;;
12367;SDS011;6248;49.812;6.620;2023-04-10T06:58:24;4.93;;;4.50;;
12367;SDS011;6248;49.812;6.620;2023-04-10T07:00:51;5.43;;;4.93;;
12367;SDS011;6248;49.812;6.620;2023-04-10T07:03:21;5.47;;;4.97;;
12367;SDS011;6248;49.812;6.620;2023-04-10T07:05:48;4.90;;;4.50;;
12367;SDS011;6248;49.812;6.620;2023-04-10T07:08:15;4.90;;;4.50;;
12367;SDS011;6248;49.812;6.620;2023-04-10T07:10:42;4.77;;;4.37;;
12367;SDS011;6248;49.812;6.620;2023-04-10T07:13:10;5.23;;;4.60;;
12367;SDS011;6248;49.812;6.620;2023-04-10T07:15:38;5.17;;;4.67;;
12367;SDS011;6248;49.812;6.620;2023-04-10T07:18:05;4.57;;;4.17;;
12367;SDS011;6248;49.812;6.620;2023-04-10T07:20:32;4.90;;;4.50;;
12367;SDS011;6248;49.812;6.620;2023-04-10T07:22:59;4.90;;;4.50;;
12367;SDS011;6248;49.812;6.620;2023-04-10T07:25:26;4.60;;;4.20;;
12367;SDS011;6248;49.812;6.620;2023-04-10T07:27:53;4.40;;;4.10;;
12367;SDS011;6248;49.812;6.620;2023-04-10T07:30:22;4.30;;;3.97;;
12367;SDS011;6248;49.812;6.620;2023-04-10T07:32:49;4.30;;;3.97;;
12367;SDS011;6248;49.812;6.620;2023-04-10T07:35:16;4.60;;;4.20;;
12367;SDS011;6248;49.812;6.620;2023-04-10T07:37:44;4.77;;;4.27;;
12367;SDS011;6248;49.812;6.620;2023-04-10T07:40:15;4.20;;;3.90;;
12367;SDS011;6248;49.812;6.620;2023-04-10T07:42:42;4.73;;;4.33;;
12367;SDS011;6248;49.812;6.620;2023-04-10T07:45:10;4.27;;;3.97;;
12367;SDS011;6248;49.812;6.620;2023-04-10T07:47:38;4.20;;;3.90;;
12367;SDS011;6248;49.812;6.620;2023-04-10T07:50:06;4.03;;;3.73;;
12367;SDS011;6248;49.812;6.620;2023-04-10T07:52:33;4.13;;;3.83;;
12367;SDS011;6248;49.812;6.620;2023-04-10T07:55:00;4.27;;;3.87;;
12367;SDS011;6248;49.812;6.620;2023-04-10T07:57:27;5.13;;;4.17;;
12367;SDS011;6248;49.812;6.620;2023-04-10T07:59:56;4.20;;;3.90;;
12367;SDS011;6248;49.812;6.620;2023-04-10T08:02:23;4.00;;;3.70;;
12367;SDS011;6248;49.812;6.620;2023-04-10T08:04:51;4.13;;;3.73;;
12367;SDS011;6248;49.812;6.620;2023-04-10T08:07:19;3.93;;;3.63;;
12367;SDS011;6248;49.812;6.620;2023-04-10T08:09:49;3.47;;;3.27;;
12367;SDS011;6248;49.812;6.620;2023-04-10T08:12:16;3.70;;;3.40;;
12367;SDS011;6248;49.812;6.620;2023-04-10T08:14:43;3.60;;;3.30;;
12367;SDS011;6248;49.812;6.620;2023-04-10T08:17:10;3.50;;;3.20;;
12367;SDS011;6248;49.812;6.620;2023-04-10T08:19:39;3.10;;;2.90;;
12367;SDS011;6248;49.812;6.620;2023-04-10T08:22:07;5.67;;;3.50;;
12367;SDS011;6248;49.812;6.620;2023-04-10T08:24:34;2.90;;;2.70;;
12367;SDS011;6248;49.812;6.620;2023-04-10T08:27:01;3.63;;;3.13;;
12367;SDS011;6248;49.812;6.620;2023-04-10T08:29:29;2.80;;;2.60;;
12367;SDS011;6248;49.812;6.620;2023-04-10T08:31:56;3.13;;;2.93;;
12367;SDS011;6248;49.812;6.620;2023-04-10T08:34:25;3.30;;;3.10;;
12367;SDS011;6248;49.812;6.620;2023-04-10T08:36:52;3.20;;;3.00;;
12367;SDS011;6248;49.812;6.620;2023-04-10T08:39:21;3.10;;;2.90;;
12367;SDS011;6248;49.812;6.620;2023-04-10T08:41:49;3.47;;;3.20;;
12367;SDS011;6248;49.812;6.620;2023-04-10T08:44:16;3.00;;;2.80;;
12367;SDS011;6248;49.812;6.620;2023-04-10T08:46:44;3.00;;;2.80;;
12367;SDS011;6248;49.812;6.620;2023-04-10T08:49:14;2.93;;;2.73;;
12367;SDS011;6248;49.812;6.620;2023-04-10T08:51:45;2.92;;;2.72;;
12367;SDS011;6248;49.812;6.620;2023-04-10T08:54:13;3.08;;;2.88;;
12367;SDS011;6248;49.812;6.620;2023-04-10T08:56:47;3.15;;;2.95;;
12367;SDS011;6248;49.812;6.620;2023-04-10T08:59:16;3.00;;;2.80;;
12367;SDS011;6248;49.812;6.620;2023-04-10T09:01:44;3.00;;;2.70;;
12367;SDS011;6248;49.812;6.620;2023-04-10T09:04:12;2.72;;;2.53;;
12367;SDS011;6248;49.812;6.620;2023-04-10T09:06:41;2.85;;;2.65;;
12367;SDS011;6248;49.812;6.620;2023-04-10T09:09:08;3.05;;;2.85;;
12367;SDS011;6248;49.812;6.620;2023-04-10T09:14:20;2.90;;;2.70;;
12367;SDS011;6248;49.812;6.620;2023-04-10T09:16:47;2.47;;;2.38;;
12367;SDS011;6248;49.812;6.620;2023-04-10T09:19:18;4.18;;;3.13;;
12367;SDS011;6248;49.812;6.620;2023-04-10T09:21:55;2.80;;;2.60;;
12367;SDS011;6248;49.812;6.620;2023-04-10T09:24:22;2.92;;;2.72;;
12367;SDS011;6248;49.812;6.620;2023-04-10T09:26:49;2.85;;;2.70;;
12367;SDS011;6248;49.812;6.620;2023-04-10T09:29:17;2.90;;;2.70;;
12367;SDS011;6248;49.812;6.620;2023-04-10T09:31:46;3.10;;;2.90;;
12367;SDS011;6248;49.812;6.620;2023-04-10T09:34:13;2.78;;;2.58;;
12367;SDS011;6248;49.812;6.620;2023-04-10T09:36:41;2.78;;;2.58;;
12367;SDS011;6248;49.812;6.620;2023-04-10T09:39:08;2.63;;;2.40;;
12367;SDS011;6248;49.812;6.620;2023-04-10T09:41:45;2.90;;;2.60;;
12367;SDS011;6248;49.812;6.620;2023-04-10T09:44:15;2.90;;;2.70;;
12367;SDS011;6248;49.812;6.620;2023-04-10T09:46:42;2.53;;;2.33;;
12367;SDS011;6248;49.812;6.620;2023-04-10T09:49:11;3.33;;;2.50;;
12367;SDS011;6248;49.812;6.620;2023-04-10T09:51:38;2.40;;;2.30;;
12367;SDS011;6248;49.812;6.620;2023-04-10T09:54:06;2.20;;;2.10;;
12367;SDS011;6248;49.812;6.620;2023-04-10T09:56:35;2.83;;;2.40;;
12367;SDS011;6248;49.812;6.620;2023-04-10T09:59:05;2.45;;;1.95;;
12367;SDS011;6248;49.812;6.620;2023-04-10T10:01:32;2.25;;;2.15;;
12367;SDS011;6248;49.812;6.620;2023-04-10T10:04:00;2.78;;;2.58;;
12367;SDS011;6248;49.812;6.620;2023-04-10T10:06:29;2.30;;;2.20;;
12367;SDS011;6248;49.812;6.620;2023-04-10T10:08:59;2.35;;;2.22;;
12367;SDS011;6248;49.812;6.620;2023-04-10T10:11:27;3.35;;;2.20;;
12367;SDS011;6248;49.812;6.620;2023-04-10T10:13:55;2.35;;;2.25;;
12367;SDS011;6248;49.812;6.620;2023-04-10T10:16:25;4.78;;;2.30;;
12367;SDS011;6248;49.812;6.620;2023-04-10T10:18:57;2.28;;;2.17;;
12367;SDS011;6248;49.812;6.620;2023-04-10T10:21:27;2.38;;;2.28;;
12367;SDS011;6248;49.812;6.620;2023-04-10T10:23:57;2.20;;;2.10;;
12367;SDS011;6248;49.812;6.620;2023-04-10T10:26:25;2.13;;;2.03;;
12367;SDS011;6248;49.812;6.620;2023-04-10T10:28:53;2.22;;;2.13;;
12367;SDS011;6248;49.812;6.620;2023-04-10T10:31:21;2.30;;;2.20;;
12367;SDS011;6248;49.812;6.620;2023-04-10T10:33:51;2.13;;;2.03;;
12367;SDS011;6248;49.812;6.620;2023-04-10T10:36:18;2.28;;;2.17;;
12367;SDS011;6248;49.812;6.620;2023-04-10T10:38:47;2.35;;;2.25;;
12367;SDS011;6248;49.812;6.620;2023-04-10T10:41:20;2.10;;;2.00;;
12367;SDS011;6248;49.812;6.620;2023-04-10T10:43:51;2.40;;;2.30;;
12367;SDS011;6248;49.812;6.620;2023-04-10T10:46:21;2.00;;;1.90;;
12367;SDS011;6248;49.812;6.620;2023-04-10T10:48:56;2.70;;;2.50;;
12367;SDS011;6248;49.812;6.620;2023-04-10T10:51:23;2.92;;;2.50;;
12367;SDS011;6248;49.812;6.620;2023-04-10T10:53:50;2.42;;;2.33;;
12367;SDS011;6248;49.812;6.620;2023-04-10T10:56:34;2.70;;;2.50;;
12367;SDS011;6248;49.812;6.620;2023-04-10T10:59:01;2.20;;;2.10;;
12367;SDS011;6248;49.812;6.620;2023-04-10T11:01:29;2.35;;;2.25;;
12367;SDS011;6248;49.812;6.620;2023-04-10T11:03:56;2.40;;;2.30;;
12367;SDS011;6248;49.812;6.620;2023-04-10T11:09:21;2.35;;;2.25;;
12367;SDS011;6248;49.812;6.620;2023-04-10T11:12:09;2.30;;;2.20;;
12367;SDS011;6248;49.812;6.620;2023-04-10T11:14:36;2.47;;;2.38;;
12367;SDS011;6248;49.812;6.620;2023-04-10T11:17:03;2.55;;;2.35;;
12367;SDS011;6248;49.812;6.620;2023-04-10T11:19:31;2.47;;;2.28;;
12367;SDS011;6248;49.812;6.620;2023-04-10T11:22:18;2.47;;;2.38;;
12367;SDS011;6248;49.812;6.620;2023-04-10T11:24:54;2.60;;;2.40;;
12367;SDS011;6248;49.812;6.620;2023-04-10T11:32:57;2.45;;;2.35;;
12367;SDS011;6248;49.812;6.620;2023-04-10T11:35:25;2.85;;;2.65;;
12367;SDS011;6248;49.812;6.620;2023-04-10T11:38:06;5.50;;;2.20;;
12367;SDS011;6248;49.812;6.620;2023-04-10T11:40:34;2.97;;;2.30;;
12367;SDS011;6248;49.812;6.620;2023-04-10T11:43:11;2.40;;;2.30;;
12367;SDS011;6248;49.812;6.620;2023-04-10T11:45:38;2.33;;;2.22;;
12367;SDS011;6248;49.812;6.620;2023-04-10T11:48:07;2.70;;;2.50;;
12367;SDS011;6248;49.812;6.620;2023-04-10T11:50:34;3.05;;;2.40;;
12367;SDS011;6248;49.812;6.620;2023-04-10T11:53:01;2.35;;;2.15;;
12367;SDS011;6248;49.812;6.620;2023-04-10T11:55:42;9.88;;;2.53;;
12367;SDS011;6248;49.812;6.620;2023-04-10T11:58:20;2.55;;;2.35;;
12367;SDS011;6248;49.812;6.620;2023-04-10T12:00:54;3.65;;;2.38;;
12367;SDS011;6248;49.812;6.620;2023-04-10T12:03:31;2.28;;;2.17;;
12367;SDS011;6248;49.812;6.620;2023-04-10T12:05:58;2.97;;;2.53;;
12367;SDS011;6248;49.812;6.620;2023-04-10T12:08:29;2.58;;;2.38;;
12367;SDS011;6248;49.812;6.620;2023-04-10T12:10:56;2.45;;;2.25;;
12367;SDS011;6248;49.812;6.620;2023-04-10T12:13:23;2.35;;;2.15;;
12367;SDS011;6248;49.812;6.620;2023-04-10T12:15:50;3.15;;;2.40;;
12367;SDS011;6248;49.812;6.620;2023-04-10T12:18:18;2.55;;;2.35;;
12367;SDS011;6248;49.812;6.620;2023-04-10T12:20:46;2.40;;;2.20;;
12367;SDS011;6248;49.812;6.620;2023-04-10T12:23:15;2.50;;;2.30;;
12367;SDS011;6248;49.812;6.620;2023-04-10T12:25:43;2.40;;;2.20;;
12367;SDS011;6248;49.812;6.620;2023-04-10T12:28:15;2.70;;;2.50;;
12367;SDS011;6248;49.812;6.620;2023-04-10T12:30:45;2.40;;;2.30;;
12367;SDS011;6248;49.812;6.620;2023-04-10T12:33:12;3.33;;;2.90;;
12367;SDS011;6248;49.812;6.620;2023-04-10T12:35:39;2.95;;;2.75;;
12367;SDS011;6248;49.812;6.620;2023-04-10T12:38:09;2.90;;;2.70;;
12367;SDS011;6248;49.812;6.620;2023-04-10T12:40:36;2.95;;;2.75;;
12367;SDS011;6248;49.812;6.620;2023-04-10T12:43:05;2.83;;;2.63;;
12367;SDS011;6248;49.812;6.620;2023-04-10T12:45:41;3.00;;;2.70;;
12367;SDS011;6248;49.812;6.620;2023-04-10T12:48:09;2.90;;;2.70;;
12367;SDS011;6248;49.812;6.620;2023-04-10T12:50:44;3.00;;;2.80;;
12367;SDS011;6248;49.812;6.620;2023-04-10T12:53:13;2.83;;;2.58;;
12367;SDS011;6248;49.812;6.620;2023-04-10T12:55:41;2.53;;;2.40;;
12367;SDS011;6248;49.812;6.620;2023-04-10T12:58:14;2.53;;;2.35;;
12367;SDS011;6248;49.812;6.620;2023-04-10T13:00:42;2.47;;;2.30;;
12367;SDS011;6248;49.812;6.620;2023-04-10T13:03:09;2.65;;;2.45;;
12367;SDS011;6248;49.812;6.620;2023-04-10T13:05:36;2.20;;;2.10;;
12367;SDS011;6248;49.812;6.620;2023-04-10T13:08:03;2.42;;;2.33;;
12367;SDS011;6248;49.812;6.620;2023-04-10T13:10:32;2.67;;;2.50;;
12367;SDS011;6248;49.812;6.620;2023-04-10T13:13:01;4.93;;;2.70;;
12367;SDS011;6248;49.812;6.620;2023-04-10T13:15:28;2.60;;;2.40;;
12367;SDS011;6248;49.812;6.620;2023-04-10T13:17:58;2.67;;;2.47;;
12367;SDS011;6248;49.812;6.620;2023-04-10T13:20:25;3.20;;;2.33;;
12367;SDS011;6248;49.812;6.620;2023-04-10T13:22:53;2.75;;;2.13;;
12367;SDS011;6248;49.812;6.620;2023-04-10T13:25:20;2.17;;;2.08;;
12367;SDS011;6248;49.812;6.620;2023-04-10T13:27:48;2.08;;;1.98;;
12367;SDS011;6248;49.812;6.620;2023-04-10T13:30:15;10.57;;;8.60;;
12367;SDS011;6248;49.812;6.620;2023-04-10T13:32:43;3.70;;;3.40;;
12367;SDS011;6248;49.812;6.620;2023-04-10T13:35:10;2.95;;;2.50;;
12367;SDS011;6248;49.812;6.620;2023-04-10T13:37:37;2.45;;;2.25;;
12367;SDS011;6248;49.812;6.620;2023-04-10T13:40:05;2.33;;;2.22;;
12367;SDS011;6248;49.812;6.620;2023-04-10T13:42:32;2.83;;;2.20;;
12367;SDS011;6248;49.812;6.620;2023-04-10T13:45:01;2.08;;;1.98;;
12367;SDS011;6248;49.812;6.620;2023-04-10T13:47:28;3.95;;;2.30;;
12367;SDS011;6248;49.812;6.620;2023-04-10T13:49:55;2.10;;;2.00;;
12367;SDS011;6248;49.812;6.620;2023-04-10T13:52:22;2.10;;;2.00;;
12367;SDS011;6248;49.812;6.620;2023-04-10T13:54:49;2.25;;;2.10;;
12367;SDS011;6248;49.812;6.620;2023-04-10T13:57:16;2.20;;;2.03;;
12367;SDS011;6248;49.812;6.620;2023-04-10T13:59:43;1.98;;;1.77;;
12367;SDS011;6248;49.812;6.620;2023-04-10T14:02:12;2.30;;;2.10;;
12367;SDS011;6248;49.812;6.620;2023-04-10T14:04:39;2.00;;;1.90;;
12367;SDS011;6248;49.812;6.620;2023-04-10T14:07:07;2.10;;;2.00;;
12367;SDS011;6248;49.812;6.620;2023-04-10T14:09:35;1.90;;;1.80;;
12367;SDS011;6248;49.812;6.620;2023-04-10T14:12:02;2.05;;;1.85;;
12367;SDS011;6248;49.812;6.620;2023-04-10T14:14:30;2.25;;;2.05;;
12367;SDS011;6248;49.812;6.620;2023-04-10T14:16:57;3.20;;;2.40;;
12367;SDS011;6248;49.812;6.620;2023-04-10T14:19:25;2.80;;;2.10;;
12367;SDS011;6248;49.812;6.620;2023-04-10T14:21:52;2.30;;;2.20;;
12367;SDS011;6248;49.812;6.620;2023-04-10T14:24:19;2.10;;;2.00;;
12367;SDS011;6248;49.812;6.620;2023-04-10T14:26:46;2.13;;;1.95;;
12367;SDS011;6248;49.812;6.620;2023-04-10T14:29:16;2.03;;;1.92;;
12367;SDS011;6248;49.812;6.620;2023-04-10T14:31:43;2.17;;;2.08;;
12367;SDS011;6248;49.812;6.620;2023-04-10T14:34:10;2.28;;;2.17;;
12367;SDS011;6248;49.812;6.620;2023-04-10T14:36:38;2.17;;;2.00;;
12367;SDS011;6248;49.812;6.620;2023-04-10T14:39:05;2.28;;;2.10;;
12367;SDS011;6248;49.812;6.620;2023-04-10T14:41:32;2.25;;;2.15;;
12367;SDS011;6248;49.812;6.620;2023-04-10T14:44:00;2.08;;;1.98;;
12367;SDS011;6248;49.812;6.620;2023-04-10T14:46:27;2.58;;;2.38;;
12367;SDS011;6248;49.812;6.620;2023-04-10T14:48:54;2.17;;;2.00;;
12367;SDS011;6248;49.812;6.620;2023-04-10T14:51:21;2.20;;;2.10;;
12367;SDS011;6248;49.812;6.620;2023-04-10T14:53:50;1.67;;;1.58;;
12367;SDS011;6248;49.812;6.620;2023-04-10T14:56:17;1.95;;;1.85;;
12367;SDS011;6248;49.812;6.620;2023-04-10T14:58:44;2.97;;;1.90;;
12367;SDS011;6248;49.812;6.620;2023-04-10T15:01:12;2.22;;;2.05;;
12367;SDS011;6248;49.812;6.620;2023-04-10T15:03:39;2.08;;;1.90;;
12367;SDS011;6248;49.812;6.620;2023-04-10T15:06:06;2.05;;;1.95;;
12367;SDS011;6248;49.812;6.620;2023-04-10T15:08:33;2.10;;;2.00;;
12367;SDS011;6248;49.812;6.620;2023-04-10T15:11:02;1.95;;;1.85;;
12367;SDS011;6248;49.812;6.620;2023-04-10T15:13:30;2.00;;;1.90;;
12367;SDS011;6248;49.812;6.620;2023-04-10T15:15:57;2.00;;;1.90;;
12367;SDS011;6248;49.812;6.620;2023-04-10T15:18:24;1.98;;;1.88;;
12367;SDS011;6248;49.812;6.620;2023-04-10T15:20:51;2.17;;;1.98;;